createdAt,value
2018-07-16T00:01:56.022Z,79.80
2018-07-16T00:06:59.159Z,81.10
2018-07-16T00:12:02.284Z,80.90
2018-07-16T00:17:05.410Z,80.30
2018-07-16T00:22:08.549Z,82.10
2018-07-16T00:27:11.701Z,82.80
2018-07-16T00:32:14.826Z,83.10
2018-07-16T00:37:17.937Z,82.30
2018-07-16T00:42:21.164Z,82.70
2018-07-16T00:47:24.362Z,83.60
2018-07-16T00:52:27.498Z,84.10
2018-07-16T00:57:30.710Z,84.90
2018-07-16T01:02:33.806Z,84.60
2018-07-16T01:07:37.062Z,84.00
2018-07-16T01:12:40.231Z,84.40
2018-07-16T01:17:43.319Z,84.20
2018-07-16T01:22:46.566Z,85.30
2018-07-16T01:27:49.697Z,86.00
2018-07-16T01:32:52.826Z,87.70
2018-07-16T01:37:55.982Z,87.40
2018-07-16T01:42:59.178Z,87.00
2018-07-16T01:48:02.372Z,86.80
2018-07-16T01:53:05.509Z,86.50
2018-07-16T01:58:08.621Z,86.80
2018-07-16T02:03:11.757Z,87.00
2018-07-16T02:08:14.866Z,88.00
2018-07-16T02:13:18.031Z,88.50
2018-07-16T02:18:21.245Z,88.90
2018-07-16T02:23:24.374Z,88.90
2018-07-16T02:28:27.516Z,89.60
2018-07-16T02:33:30.622Z,89.40
2018-07-16T02:38:33.754Z,89.80
2018-07-16T02:43:36.894Z,89.90
2018-07-16T02:48:40.020Z,89.80
2018-07-16T02:53:43.146Z,89.40
2018-07-16T02:58:46.302Z,90.00
2018-07-16T03:03:49.422Z,89.80
2018-07-16T03:08:52.610Z,90.30
2018-07-16T03:13:55.730Z,90.10
2018-07-16T03:18:58.847Z,90.20
2018-07-16T03:24:02.032Z,90.30
2018-07-16T03:29:05.161Z,90.20
2018-07-16T03:34:08.270Z,90.40
2018-07-16T03:39:11.414Z,90.50
2018-07-16T03:44:14.542Z,90.70
2018-07-16T03:49:17.677Z,90.90
2018-07-16T03:54:20.838Z,91.10
2018-07-16T03:59:23.962Z,91.30
2018-07-16T04:04:27.089Z,91.50
2018-07-16T04:09:30.233Z,91.90
2018-07-16T04:14:33.367Z,92.00
2018-07-16T04:19:36.514Z,92.00
2018-07-16T04:24:39.636Z,92.60
2018-07-16T04:29:42.766Z,92.40
2018-07-16T04:34:45.965Z,92.50
2018-07-16T04:39:49.089Z,92.30
2018-07-16T04:44:52.219Z,92.30
2018-07-16T04:49:55.350Z,92.20
2018-07-16T04:54:59.282Z,92.40
2018-07-16T05:00:02.406Z,92.00
2018-07-16T05:05:05.547Z,91.40
2018-07-16T05:10:08.701Z,91.00
2018-07-16T05:15:11.838Z,90.80
2018-07-16T05:20:14.961Z,91.00
2018-07-16T05:25:18.197Z,91.50
2018-07-16T05:30:21.355Z,91.80
2018-07-16T05:35:24.486Z,91.30
2018-07-16T05:40:27.610Z,91.50
2018-07-16T05:45:30.735Z,90.70
2018-07-16T05:50:33.892Z,90.70
2018-07-16T05:55:37.021Z,90.60
2018-07-16T06:00:40.174Z,89.10
2018-07-16T06:05:43.301Z,87.00
2018-07-16T06:10:46.482Z,87.10
2018-07-16T06:15:49.618Z,86.90
2018-07-16T06:20:52.810Z,86.20
2018-07-16T06:25:55.950Z,86.40
2018-07-16T06:30:59.124Z,85.80
2018-07-16T06:36:02.251Z,85.80
2018-07-16T06:41:05.834Z,86.20
2018-07-16T06:46:08.514Z,84.60
2018-07-16T06:51:11.652Z,83.60
2018-07-16T06:56:14.842Z,84.90
2018-07-16T07:01:17.990Z,84.60
2018-07-16T07:06:21.256Z,84.50
2018-07-16T07:11:24.418Z,83.80
2018-07-16T07:16:27.671Z,83.80
2018-07-16T07:21:30.866Z,80.80
2018-07-16T07:26:33.990Z,81.70
2018-07-16T07:31:37.194Z,80.70
2018-07-16T07:36:40.364Z,77.30
2018-07-16T07:41:43.502Z,76.10
2018-07-16T07:46:46.724Z,77.00
2018-07-16T07:51:49.926Z,76.80
2018-07-16T07:56:53.118Z,74.00
2018-07-16T08:01:56.258Z,72.50
2018-07-16T08:07:18.175Z,71.70
2018-07-16T08:12:21.417Z,71.40
2018-07-16T08:17:24.658Z,70.40
2018-07-16T08:22:27.769Z,69.90
2018-07-16T08:27:30.869Z,69.40
2018-07-16T08:32:34.006Z,71.30
2018-07-16T08:37:38.018Z,69.80
2018-07-16T08:42:41.575Z,69.40
2018-07-16T08:47:44.794Z,68.20
2018-07-16T08:52:49.322Z,68.00
2018-07-16T08:57:52.890Z,70.10
2018-07-16T09:02:56.878Z,69.80
2018-07-16T09:08:00.033Z,68.80
2018-07-16T09:13:03.186Z,67.20
2018-07-16T09:18:06.386Z,66.60
2018-07-16T09:23:09.944Z,63.60
2018-07-16T09:28:13.236Z,64.90
2018-07-16T09:33:16.842Z,64.10
2018-07-16T09:38:20.063Z,62.80
2018-07-16T09:43:23.210Z,63.20
2018-07-16T09:48:26.477Z,63.10
2018-07-16T09:53:29.705Z,60.60
2018-07-16T09:58:32.902Z,59.70
2018-07-16T10:03:36.176Z,61.00
2018-07-16T10:08:39.427Z,60.80
2018-07-16T10:13:42.643Z,59.80
2018-07-16T10:18:45.851Z,58.60
2018-07-16T10:23:49.035Z,56.80
2018-07-16T10:28:52.224Z,58.40
2018-07-16T10:33:55.468Z,58.90
2018-07-16T10:38:58.647Z,57.50
2018-07-16T10:44:01.783Z,54.60
2018-07-16T10:49:05.084Z,52.60
2018-07-16T10:54:08.220Z,52.70
2018-07-16T10:59:12.782Z,52.50
2018-07-16T11:04:15.926Z,52.10
2018-07-16T11:09:19.074Z,53.10
2018-07-16T11:14:22.248Z,49.60
2018-07-16T11:19:25.528Z,46.10
2018-07-16T11:24:28.678Z,47.30
2018-07-16T11:29:31.874Z,47.60
2018-07-16T11:34:35.066Z,48.10
2018-07-16T11:39:38.199Z,46.50
2018-07-16T11:44:41.367Z,44.00
2018-07-16T11:49:44.527Z,43.20
2018-07-16T11:54:47.772Z,45.30
2018-07-16T11:59:51.032Z,43.30
2018-07-16T12:04:54.102Z,43.80
2018-07-16T12:09:57.257Z,43.80
2018-07-16T12:15:01.522Z,44.60
2018-07-16T12:20:04.779Z,41.70
2018-07-16T12:25:07.979Z,40.20
2018-07-16T12:30:11.126Z,41.60
2018-07-16T12:35:14.397Z,43.00
2018-07-16T12:40:17.731Z,42.10
2018-07-16T12:45:20.920Z,41.30
2018-07-16T12:50:24.074Z,40.60
2018-07-16T12:55:27.324Z,40.60
2018-07-16T13:00:32.761Z,41.20
2018-07-16T13:05:35.942Z,39.70
2018-07-16T13:10:42.790Z,38.90
2018-07-16T13:15:49.409Z,39.00
2018-07-16T13:20:52.534Z,39.40
2018-07-16T13:25:55.723Z,39.10
2018-07-16T13:30:58.999Z,38.40
2018-07-16T13:36:02.213Z,38.00
2018-07-16T13:41:05.359Z,38.10
2018-07-16T13:46:08.554Z,38.40
2018-07-16T13:51:11.686Z,37.50
2018-07-16T13:56:14.843Z,37.90
2018-07-16T14:01:18.074Z,37.80
2018-07-16T14:06:21.275Z,37.80
2018-07-16T14:11:24.454Z,38.80
2018-07-16T14:16:27.601Z,37.70
2018-07-16T14:21:30.738Z,36.80
2018-07-16T14:26:33.907Z,36.10
2018-07-16T14:31:37.040Z,36.40
2018-07-16T14:36:40.230Z,37.20
2018-07-16T14:41:43.392Z,36.50
2018-07-16T14:46:46.551Z,37.70
2018-07-16T14:51:49.683Z,37.20
2018-07-16T14:56:52.820Z,37.40
2018-07-16T15:01:56.042Z,37.80
2018-07-16T15:06:59.227Z,37.80
2018-07-16T15:12:02.390Z,37.50
2018-07-16T15:17:05.531Z,36.50
2018-07-16T15:22:08.650Z,36.60
2018-07-16T15:27:12.802Z,36.50
2018-07-16T15:32:15.922Z,35.70
2018-07-16T15:37:19.061Z,35.00
2018-07-16T15:42:22.209Z,35.20
2018-07-16T15:47:25.330Z,34.80
2018-07-16T15:52:28.454Z,36.00
2018-07-16T15:57:32.206Z,35.90
2018-07-16T16:02:35.375Z,36.50
2018-07-16T16:07:38.519Z,35.20
2018-07-16T16:12:41.638Z,35.70
2018-07-16T16:17:44.782Z,36.40
2018-07-16T16:22:49.950Z,35.90
2018-07-16T16:27:53.077Z,36.30
2018-07-16T16:32:56.280Z,37.20
2018-07-16T16:38:00.167Z,36.00
2018-07-16T16:43:03.306Z,37.30
2018-07-16T16:48:06.480Z,37.10
2018-07-16T16:53:10.650Z,36.30
2018-07-16T16:58:13.787Z,37.00
2018-07-16T17:03:17.138Z,37.30
2018-07-16T17:08:20.257Z,37.60
2018-07-16T17:13:23.897Z,36.70
2018-07-16T17:18:27.092Z,38.30
2018-07-16T17:23:30.244Z,37.10
2018-07-16T17:28:33.579Z,38.10
2018-07-16T17:33:36.691Z,40.10
2018-07-16T17:38:39.841Z,39.80
2018-07-16T17:43:43.710Z,37.40
2018-07-16T17:48:46.842Z,38.70
2018-07-16T17:53:50.218Z,39.60
2018-07-16T17:58:53.398Z,39.20
2018-07-16T18:03:56.535Z,40.10
2018-07-16T18:08:59.749Z,40.00
2018-07-16T18:14:02.941Z,41.00
2018-07-16T18:19:06.122Z,41.90
2018-07-16T18:24:09.354Z,43.00
2018-07-16T18:29:12.969Z,41.90
2018-07-16T18:34:16.110Z,42.90
2018-07-16T18:39:19.358Z,45.00
2018-07-16T18:44:22.693Z,45.00
2018-07-16T18:49:26.745Z,44.70
2018-07-16T18:54:29.789Z,46.10
2018-07-16T18:59:32.921Z,46.00
2018-07-16T19:04:36.054Z,46.60
2018-07-16T19:09:39.244Z,47.80
2018-07-16T19:14:42.370Z,49.50
2018-07-16T19:19:45.586Z,50.20
2018-07-16T19:24:48.730Z,51.10
2018-07-16T19:29:51.872Z,50.70
2018-07-16T19:34:54.980Z,51.20
2018-07-16T19:39:58.877Z,51.70
2018-07-16T19:50:07.578Z,53.60
2018-07-16T19:55:10.930Z,54.20
2018-07-16T20:00:14.340Z,54.00
2018-07-16T20:05:17.494Z,56.30
2018-07-16T20:10:20.699Z,57.20
2018-07-16T20:15:23.842Z,57.70
2018-07-16T20:20:27.086Z,56.80
2018-07-16T20:25:30.120Z,57.80
2018-07-16T20:30:33.315Z,59.10
2018-07-16T20:35:36.797Z,61.50
2018-07-16T20:40:39.993Z,63.00
2018-07-16T20:45:43.238Z,63.40
2018-07-16T20:50:46.394Z,63.60
2018-07-16T20:55:49.529Z,65.60
2018-07-16T21:00:52.683Z,63.70
2018-07-16T21:05:56.797Z,65.60
2018-07-16T21:11:00.445Z,66.70
2018-07-16T21:16:03.630Z,66.50
2018-07-16T21:21:06.788Z,68.50
2018-07-16T21:26:10.027Z,69.90
2018-07-16T21:31:13.154Z,69.70
2018-07-16T21:36:16.438Z,70.70
2018-07-16T21:41:19.567Z,70.60
2018-07-16T21:46:22.812Z,71.80
2018-07-16T21:51:25.890Z,72.50
2018-07-16T21:56:29.212Z,73.10
2018-07-16T22:01:32.370Z,74.30
2018-07-16T22:06:35.504Z,74.10
2018-07-16T22:11:38.706Z,75.00
2018-07-16T22:16:41.914Z,75.80
2018-07-16T22:21:45.083Z,75.60
2018-07-16T22:26:48.231Z,75.40
2018-07-16T22:31:51.686Z,76.30
2018-07-16T22:36:54.825Z,75.50
2018-07-16T22:41:57.961Z,77.80
2018-07-16T22:47:01.087Z,77.00
2018-07-16T22:52:04.292Z,77.30
2018-07-16T22:57:07.420Z,78.10
2018-07-16T23:02:11.149Z,76.70
2018-07-16T23:07:14.342Z,79.00
2018-07-16T23:12:17.513Z,79.80
2018-07-16T23:17:20.636Z,79.90
2018-07-16T23:22:23.786Z,80.20
2018-07-16T23:27:26.914Z,78.90
2018-07-16T23:32:30.071Z,78.60
2018-07-16T23:37:33.235Z,79.00
2018-07-16T23:42:36.350Z,80.30
2018-07-16T23:47:39.680Z,80.70
2018-07-16T23:52:43.466Z,81.20
2018-07-16T23:57:46.595Z,81.10
